ROMMA est une association bénévole à but non lucratif. Votre soutien est indispensable : ADHERER à ROMMA ou FAIRE un DON

La Beaume - (05, Hautes Alpes)

Buëch (820 m)   Longitude: 5° 40' 9'' E   Latitude: 44° 32' 3'' N Station partenaire n°75
 

Détail journalier du     <<     >>

Température Precipitation Humidité Pression Vent Dir Rafale Dir. rafale Ensol.
Heure (°C) (mm) (%) (hPa) (km/h) (km/h) (min)
01:00 7.008010191N11NO0
02:00 5.708610191O6O0
03:00 5.3087101905O0
04:00 4.4090101905N0
05:00 4.309110191NO5NO0
06:00 3.809110192NO5NO0
07:00 3.409210191NO5NO0
08:00 3.209410192ONO5ONO0
09:00 5.309310201ONO5ONO30
10:00 8.708210201NE5ONO60
11:00 12.206910201NE6NE60
12:00 15.005510191E6SSE60
13:00 17.304810192E11SE60
14:00 18.604110184ESE15SE60
15:00 19.904010187SE16ESE60
16:00 20.303910188SE16SE60
17:00 20.604210176SE15SSE60
18:00 16.205610176SO11SO30
19:00 15.105810172SO10SO0
20:00 13.6063101805OSO0
21:00 12.40681018000
22:00 11.807210191OSO5OSO0
23:00 12.3073101806NO0
minuit 12.007610181N6N0

Graphique du 08-10-2019

 

Serveur OMMA